createdAt,value
2022-10-29T00:01:27.996Z,4.53
2022-10-29T00:04:13.333Z,4.05
2022-10-29T00:06:58.912Z,4.53
2022-10-29T00:09:44.430Z,4.65
2022-10-29T00:12:30.215Z,4.40
2022-10-29T00:15:15.598Z,4.30
2022-10-29T00:18:00.978Z,4.88
2022-10-29T00:20:46.449Z,4.50
2022-10-29T00:23:31.695Z,5.00
2022-10-29T00:26:19.886Z,4.22
2022-10-29T00:29:05.531Z,4.68
2022-10-29T00:31:51.637Z,3.67
2022-10-29T00:34:37.707Z,4.13
2022-10-29T00:37:23.058Z,4.53
2022-10-29T00:40:09.521Z,4.60
2022-10-29T00:43:15.604Z,4.05
2022-10-29T00:46:05.683Z,3.72
2022-10-29T00:48:54.536Z,4.10
2022-10-29T00:51:40.182Z,3.67
2022-10-29T00:54:27.582Z,4.22
2022-10-29T00:57:20.037Z,4.13
2022-10-29T01:00:06.564Z,4.55
2022-10-29T01:02:51.905Z,4.47
2022-10-29T01:05:37.857Z,3.97
2022-10-29T01:08:23.541Z,4.25
2022-10-29T01:11:16.652Z,4.68
2022-10-29T01:14:15.933Z,4.00
2022-10-29T01:17:07.968Z,3.85
2022-10-29T01:20:11.646Z,4.22
2022-10-29T01:23:16.766Z,3.80
2022-10-29T01:29:32.035Z,2.97
2022-10-29T01:32:43.343Z,3.67
2022-10-29T01:35:40.833Z,4.07
2022-10-29T01:38:40.081Z,3.80
2022-10-29T01:41:54.920Z,4.43
2022-10-29T01:44:43.410Z,3.53
2022-10-29T01:47:35.911Z,4.55
2022-10-29T01:50:24.791Z,4.03
2022-10-29T01:53:10.995Z,3.85
2022-10-29T01:55:56.479Z,4.07
2022-10-29T01:58:47.639Z,3.70
2022-10-29T02:02:14.423Z,3.50
2022-10-29T02:04:59.632Z,3.80
2022-10-29T02:07:57.149Z,3.70
2022-10-29T02:11:01.941Z,3.55
2022-10-29T02:13:59.486Z,3.80
2022-10-29T02:16:45.672Z,4.05
2022-10-29T02:19:32.914Z,4.05
2022-10-29T02:22:18.220Z,3.40
2022-10-29T02:25:04.870Z,4.03
2022-10-29T02:27:50.650Z,3.47
2022-10-29T02:30:36.238Z,3.85
2022-10-29T02:33:21.872Z,3.50
2022-10-29T02:36:07.746Z,4.00
2022-10-29T02:38:53.027Z,3.78
2022-10-29T02:41:38.771Z,5.43
2022-10-29T02:44:24.223Z,4.40
2022-10-29T02:47:09.866Z,3.78
2022-10-29T02:49:55.363Z,3.97
2022-10-29T02:52:41.030Z,3.30
2022-10-29T02:55:26.502Z,3.67
2022-10-29T02:58:12.083Z,3.80
2022-10-29T03:00:57.752Z,3.65
2022-10-29T03:03:43.293Z,4.30
2022-10-29T03:06:29.124Z,4.22
2022-10-29T03:09:14.456Z,3.70
2022-10-29T03:11:59.959Z,3.53
2022-10-29T03:14:45.606Z,4.40
2022-10-29T03:17:30.970Z,3.63
2022-10-29T03:20:16.990Z,3.50
2022-10-29T03:23:02.376Z,4.00
2022-10-29T03:25:55.749Z,3.70
2022-10-29T03:28:41.667Z,3.67
2022-10-29T03:31:27.193Z,3.70
2022-10-29T03:34:12.410Z,4.32
2022-10-29T03:36:57.846Z,3.95
2022-10-29T03:39:43.135Z,3.42
2022-10-29T03:42:31.198Z,3.97
2022-10-29T03:45:16.824Z,4.13
2022-10-29T03:48:04.706Z,4.38
2022-10-29T03:51:05.920Z,4.00
2022-10-29T03:53:51.633Z,4.15
2022-10-29T03:56:37.149Z,3.83
2022-10-29T03:59:22.746Z,3.50
2022-10-29T04:02:08.970Z,3.70
2022-10-29T04:04:54.306Z,4.22
2022-10-29T04:07:39.965Z,4.05
2022-10-29T04:10:26.790Z,3.67
2022-10-29T04:13:12.679Z,3.90
2022-10-29T04:15:58.331Z,4.15
2022-10-29T04:18:43.657Z,4.65
2022-10-29T04:23:25.428Z,3.42
2022-10-29T04:27:01.784Z,3.40
2022-10-29T04:30:45.461Z,3.75
2022-10-29T04:33:30.629Z,3.38
2022-10-29T04:36:16.178Z,3.47
2022-10-29T04:39:01.831Z,4.00
2022-10-29T04:41:50.105Z,3.53
2022-10-29T04:44:36.009Z,3.88
2022-10-29T04:47:21.211Z,4.78
2022-10-29T04:50:06.999Z,3.95
2022-10-29T04:52:52.283Z,3.65
2022-10-29T04:55:39.105Z,4.00
2022-10-29T04:58:24.561Z,3.38
2022-10-29T05:01:10.382Z,4.00
2022-10-29T05:03:59.021Z,4.13
2022-10-29T05:06:45.772Z,3.67
2022-10-29T05:09:31.585Z,4.07
2022-10-29T05:12:17.028Z,3.90
2022-10-29T05:15:02.866Z,3.40
2022-10-29T05:17:48.480Z,3.80
2022-10-29T05:20:34.276Z,3.97
2022-10-29T05:23:19.895Z,3.88
2022-10-29T05:26:05.466Z,4.00
2022-10-29T05:28:51.789Z,4.55
2022-10-29T05:31:36.940Z,3.67
2022-10-29T05:34:22.703Z,4.80
2022-10-29T05:37:07.974Z,4.47
2022-10-29T05:39:54.257Z,4.53
2022-10-29T05:42:42.452Z,4.07
2022-10-29T05:45:31.910Z,4.38
2022-10-29T05:48:17.138Z,4.65
2022-10-29T05:51:02.693Z,4.47
2022-10-29T05:53:48.476Z,4.20
2022-10-29T05:56:33.874Z,4.43
2022-10-29T05:59:19.558Z,4.70
2022-10-29T06:02:05.160Z,3.97
2022-10-29T06:04:50.667Z,4.25
2022-10-29T06:07:36.366Z,4.47
2022-10-29T06:10:22.478Z,4.25
2022-10-29T06:13:18.020Z,3.80
2022-10-29T06:16:03.516Z,4.38
2022-10-29T06:18:49.374Z,4.70
2022-10-29T06:21:35.689Z,4.22
2022-10-29T06:24:21.301Z,4.47
2022-10-29T06:27:06.784Z,4.65
2022-10-29T06:29:52.299Z,5.10
2022-10-29T06:32:37.783Z,4.05
2022-10-29T06:35:23.785Z,4.55
2022-10-29T06:38:12.396Z,4.35
2022-10-29T06:40:57.980Z,4.53
2022-10-29T06:43:43.234Z,4.50
2022-10-29T06:46:28.899Z,4.40
2022-10-29T06:49:14.298Z,4.00
2022-10-29T06:51:59.672Z,4.47
2022-10-29T06:54:45.170Z,3.97
2022-10-29T06:57:30.568Z,3.90
2022-10-29T07:00:16.188Z,5.20
2022-10-29T07:03:03.399Z,4.85
2022-10-29T07:05:56.331Z,3.97
2022-10-29T07:08:41.930Z,5.25
2022-10-29T07:11:27.351Z,4.22
2022-10-29T07:14:12.605Z,4.20
2022-10-29T07:16:58.238Z,3.92
2022-10-29T07:19:43.849Z,3.83
2022-10-29T07:22:34.651Z,5.03
2022-10-29T07:25:20.625Z,4.57
2022-10-29T07:28:13.605Z,4.47
2022-10-29T07:31:01.069Z,4.97
2022-10-29T07:33:46.411Z,4.72
2022-10-29T07:36:32.130Z,5.28
2022-10-29T07:39:17.614Z,6.18
2022-10-29T07:42:03.169Z,5.25
2022-10-29T07:44:48.698Z,4.50
2022-10-29T07:47:34.079Z,5.47
2022-10-29T07:50:19.362Z,4.10
2022-10-29T07:53:06.391Z,4.32
2022-10-29T07:55:55.864Z,4.32
2022-10-29T07:58:41.453Z,5.35
2022-10-29T08:01:27.073Z,3.97
2022-10-29T08:04:13.472Z,4.28
2022-10-29T08:06:58.799Z,4.32
2022-10-29T08:09:44.381Z,4.60
2022-10-29T08:12:29.888Z,3.92
2022-10-29T08:15:15.831Z,3.72
2022-10-29T08:18:01.214Z,4.95
2022-10-29T08:20:46.596Z,3.85
2022-10-29T08:23:32.577Z,4.50
2022-10-29T08:26:19.375Z,4.70
2022-10-29T08:29:05.062Z,4.57
2022-10-29T08:31:50.432Z,4.05
2022-10-29T08:34:35.736Z,4.38
2022-10-29T08:37:21.601Z,4.28
2022-10-29T08:40:07.851Z,3.65
2022-10-29T08:43:34.351Z,4.00
2022-10-29T08:46:50.491Z,3.63
2022-10-29T08:50:04.260Z,4.45
2022-10-29T08:52:58.960Z,3.75
2022-10-29T08:55:57.390Z,3.40
2022-10-29T08:59:12.680Z,4.25
2022-10-29T09:01:58.249Z,3.53
2022-10-29T09:04:44.243Z,4.10
2022-10-29T09:07:39.339Z,3.85
2022-10-29T09:10:32.096Z,3.45
2022-10-29T09:13:40.829Z,4.10
2022-10-29T09:16:52.140Z,4.00
2022-10-29T09:20:00.902Z,4.00
2022-10-29T09:22:56.727Z,7.32
2022-10-29T09:25:53.990Z,4.45
2022-10-29T09:28:58.209Z,3.83
2022-10-29T09:31:49.115Z,3.47
2022-10-29T09:34:46.148Z,3.65
2022-10-29T09:37:46.022Z,3.80
2022-10-29T09:40:41.960Z,3.60
2022-10-29T09:43:45.619Z,3.47
2022-10-29T09:46:31.181Z,3.40
2022-10-29T09:49:41.941Z,3.28
2022-10-29T09:52:32.141Z,4.05
2022-10-29T09:55:21.031Z,4.30
2022-10-29T09:58:07.233Z,3.53
2022-10-29T10:00:54.470Z,4.10
2022-10-29T10:03:47.301Z,3.75
2022-10-29T10:07:10.004Z,3.05
2022-10-29T10:10:00.688Z,3.63
2022-10-29T10:12:48.319Z,3.50
2022-10-29T10:15:37.344Z,3.80
2022-10-29T10:18:31.940Z,4.63
2022-10-29T10:21:30.042Z,3.42
2022-10-29T10:24:36.782Z,3.33
2022-10-29T10:27:30.253Z,3.72
2022-10-29T10:30:18.020Z,3.63
2022-10-29T10:33:31.757Z,3.53
2022-10-29T10:36:21.009Z,3.08
2022-10-29T10:39:27.611Z,2.80
2022-10-29T10:42:30.047Z,2.95
2022-10-29T10:45:18.762Z,3.40
2022-10-29T10:48:09.921Z,2.78
2022-10-29T10:51:29.232Z,3.72
2022-10-29T10:54:27.228Z,2.90
2022-10-29T10:57:12.863Z,4.05
2022-10-29T11:00:17.157Z,3.25
2022-10-29T11:03:08.670Z,3.10
2022-10-29T11:06:15.450Z,3.67
2022-10-29T11:09:30.242Z,2.83
2022-10-29T11:12:34.103Z,3.75
2022-10-29T11:15:36.094Z,3.00
2022-10-29T11:18:43.679Z,2.75
2022-10-29T11:21:49.507Z,3.40
2022-10-29T11:24:53.617Z,3.20
2022-10-29T11:28:05.734Z,2.70
2022-10-29T11:30:59.207Z,3.13
2022-10-29T11:34:11.274Z,3.05
2022-10-29T11:37:25.994Z,2.85
2022-10-29T11:40:34.335Z,2.67
2022-10-29T11:43:21.455Z,3.10
2022-10-29T11:46:34.002Z,3.13
2022-10-29T11:49:31.629Z,2.80
2022-10-29T11:52:45.944Z,3.20
2022-10-29T11:55:51.456Z,3.33
2022-10-29T11:58:46.066Z,2.88
2022-10-29T12:04:32.895Z,3.00
2022-10-29T12:07:47.960Z,2.80
2022-10-29T12:10:58.207Z,2.67
2022-10-29T12:14:02.415Z,3.00
2022-10-29T12:16:55.995Z,2.67
2022-10-29T12:19:54.824Z,2.85
2022-10-29T12:22:48.218Z,3.55
2022-10-29T12:25:57.800Z,3.27
2022-10-29T12:29:20.942Z,3.00
2022-10-29T12:32:20.467Z,3.30
2022-10-29T12:35:23.054Z,3.05
2022-10-29T12:38:33.247Z,2.60
2022-10-29T12:41:25.551Z,3.00
2022-10-29T12:44:18.869Z,2.70
2022-10-29T12:47:37.790Z,3.38
2022-10-29T12:50:46.327Z,2.60
2022-10-29T12:53:38.145Z,2.63
2022-10-29T12:56:24.651Z,2.80
2022-10-29T12:59:25.054Z,3.40
2022-10-29T13:02:19.140Z,3.40
2022-10-29T13:05:09.745Z,2.45
2022-10-29T13:08:03.999Z,2.42
2022-10-29T13:10:52.675Z,2.72
2022-10-29T13:13:48.958Z,2.50
2022-10-29T13:16:35.375Z,2.78
2022-10-29T13:19:38.704Z,3.20
2022-10-29T13:22:51.561Z,2.60
2022-10-29T13:25:36.888Z,2.60
2022-10-29T13:28:22.265Z,2.72
2022-10-29T13:31:07.848Z,2.92
2022-10-29T13:33:54.359Z,2.75
2022-10-29T13:36:40.049Z,3.13
2022-10-29T13:39:25.533Z,3.10
2022-10-29T13:42:13.313Z,2.95
2022-10-29T13:44:59.198Z,2.90
2022-10-29T13:47:45.788Z,2.80
2022-10-29T13:50:33.208Z,2.92
2022-10-29T13:53:26.983Z,3.28
2022-10-29T13:56:20.292Z,4.65
2022-10-29T13:59:13.521Z,2.97
2022-10-29T14:02:13.556Z,3.40
2022-10-29T14:05:16.019Z,3.28
2022-10-29T14:08:19.256Z,3.10
2022-10-29T14:11:33.382Z,3.03
2022-10-29T14:14:54.442Z,3.13
2022-10-29T14:17:40.304Z,3.72
2022-10-29T14:20:28.981Z,2.70
2022-10-29T14:23:15.461Z,3.00
2022-10-29T14:26:03.940Z,2.65
2022-10-29T14:28:49.604Z,2.67
2022-10-29T14:31:35.338Z,2.72
2022-10-29T14:34:27.256Z,2.67
2022-10-29T14:37:36.556Z,2.70
2022-10-29T14:40:23.195Z,2.60
2022-10-29T14:43:23.168Z,2.88
2022-10-29T14:46:16.140Z,2.92
2022-10-29T14:49:17.438Z,3.53
2022-10-29T14:52:07.666Z,2.60
2022-10-29T14:54:53.733Z,2.40
2022-10-29T14:57:42.275Z,2.47
2022-10-29T15:00:30.787Z,3.08
2022-10-29T15:03:22.341Z,2.78
2022-10-29T15:06:17.791Z,3.00
2022-10-29T15:09:04.105Z,3.20
2022-10-29T15:12:03.145Z,2.60
2022-10-29T15:14:51.234Z,2.90
2022-10-29T15:17:46.951Z,2.60
2022-10-29T15:20:41.895Z,2.88
2022-10-29T15:23:38.190Z,2.70
2022-10-29T15:26:23.482Z,2.75
2022-10-29T15:29:11.642Z,3.45
2022-10-29T15:31:58.100Z,3.53
2022-10-29T15:34:52.784Z,4.30
2022-10-29T15:37:44.101Z,3.55
2022-10-29T15:40:29.633Z,3.35
2022-10-29T15:43:29.933Z,3.88
2022-10-29T15:46:22.771Z,3.55
2022-10-29T15:49:15.193Z,3.92
2022-10-29T15:52:01.041Z,3.28
2022-10-29T15:54:47.619Z,3.78
2022-10-29T15:57:33.218Z,4.07
2022-10-29T16:00:23.447Z,4.10
2022-10-29T16:03:17.325Z,3.83
2022-10-29T16:06:06.340Z,4.57
2022-10-29T16:08:57.447Z,4.22
2022-10-29T16:11:42.717Z,3.67
2022-10-29T16:14:28.151Z,3.83
2022-10-29T16:17:15.990Z,3.90
2022-10-29T16:20:01.635Z,4.03
2022-10-29T16:22:49.432Z,3.40
2022-10-29T16:25:34.636Z,3.85
2022-10-29T16:28:20.168Z,4.68
2022-10-29T16:31:29.777Z,4.45
2022-10-29T16:34:18.207Z,3.95
2022-10-29T16:37:06.994Z,3.80
2022-10-29T16:39:52.567Z,4.68
2022-10-29T16:42:38.708Z,4.35
2022-10-29T16:45:26.904Z,4.57
2022-10-29T16:48:12.523Z,4.43
2022-10-29T16:50:57.891Z,5.10
2022-10-29T16:53:43.600Z,5.15
2022-10-29T16:56:28.799Z,5.53
2022-10-29T16:59:14.475Z,4.93
2022-10-29T17:02:00.913Z,5.40
2022-10-29T17:04:46.426Z,9.60
2022-10-29T17:07:32.468Z,10.27
2022-10-29T17:10:18.135Z,15.48
2022-10-29T17:13:04.242Z,24.48
2022-10-29T17:15:49.631Z,26.90
2022-10-29T17:18:35.302Z,22.73
2022-10-29T17:21:20.713Z,20.52
2022-10-29T17:24:07.909Z,20.10
2022-10-29T17:26:54.348Z,20.25
2022-10-29T17:29:40.139Z,21.30
2022-10-29T17:32:26.347Z,23.10
2022-10-29T17:35:11.702Z,19.42
2022-10-29T17:37:57.348Z,14.63
2022-10-29T17:40:46.553Z,12.77
2022-10-29T17:43:31.921Z,8.57
2022-10-29T17:46:18.184Z,8.05
2022-10-29T17:49:03.832Z,9.40
2022-10-29T17:51:49.231Z,7.80
2022-10-29T17:54:35.415Z,8.10
2022-10-29T17:57:20.902Z,7.97
2022-10-29T18:00:06.988Z,7.05
2022-10-29T18:02:52.144Z,6.55
2022-10-29T18:05:38.074Z,5.65
2022-10-29T18:08:23.730Z,6.40
2022-10-29T18:11:10.527Z,6.20
2022-10-29T18:13:57.645Z,5.82
2022-10-29T18:16:43.113Z,5.88
2022-10-29T18:19:28.719Z,5.97
2022-10-29T18:22:14.331Z,5.65
2022-10-29T18:24:59.828Z,5.57
2022-10-29T18:27:45.459Z,5.82
2022-10-29T18:30:31.400Z,6.25
2022-10-29T18:33:16.974Z,6.28
2022-10-29T18:36:03.030Z,5.70
2022-10-29T18:38:53.328Z,5.53
2022-10-29T18:41:39.614Z,5.70
2022-10-29T18:44:25.361Z,6.28
2022-10-29T18:47:11.097Z,6.15
2022-10-29T18:49:56.616Z,6.25
2022-10-29T18:52:42.345Z,6.60
2022-10-29T18:55:27.848Z,7.13
2022-10-29T18:58:13.150Z,6.82
2022-10-29T19:01:08.088Z,7.45
2022-10-29T19:06:40.516Z,6.28
2022-10-29T19:09:25.771Z,5.75
2022-10-29T19:12:12.941Z,5.97
2022-10-29T19:14:58.393Z,6.18
2022-10-29T19:17:43.952Z,6.63
2022-10-29T19:20:30.018Z,6.82
2022-10-29T19:23:15.571Z,6.25
2022-10-29T19:26:06.636Z,6.47
2022-10-29T19:28:51.988Z,6.32
2022-10-29T19:31:37.344Z,6.60
2022-10-29T19:34:22.947Z,6.93
2022-10-29T19:37:08.408Z,9.38
2022-10-29T19:39:53.998Z,7.60
2022-10-29T19:42:39.480Z,9.10
2022-10-29T19:45:24.715Z,8.75
2022-10-29T19:48:10.472Z,8.07
2022-10-29T19:50:56.730Z,7.80
2022-10-29T19:53:42.270Z,8.70
2022-10-29T19:56:27.806Z,8.30
2022-10-29T19:59:13.325Z,6.88
2022-10-29T20:01:58.860Z,7.28
2022-10-29T20:04:44.279Z,7.70
2022-10-29T20:07:29.677Z,7.00
2022-10-29T20:10:18.495Z,8.05
2022-10-29T20:13:03.910Z,7.65
2022-10-29T20:15:49.660Z,7.22
2022-10-29T20:18:36.339Z,7.10
2022-10-29T20:21:21.926Z,7.28
2022-10-29T20:24:07.403Z,7.10
2022-10-29T20:26:52.677Z,7.55
2022-10-29T20:29:38.267Z,6.90
2022-10-29T20:32:25.283Z,8.90
2022-10-29T20:35:10.589Z,7.38
2022-10-29T20:37:56.229Z,7.47
2022-10-29T20:40:42.175Z,6.45
2022-10-29T20:43:28.741Z,6.68
2022-10-29T20:46:14.122Z,7.72
2022-10-29T20:48:59.713Z,7.90
2022-10-29T20:51:45.116Z,8.57
2022-10-29T20:54:30.896Z,7.40
2022-10-29T20:57:16.303Z,8.23
2022-10-29T21:00:02.074Z,7.80
2022-10-29T21:02:47.592Z,7.07
2022-10-29T21:05:33.127Z,6.88
2022-10-29T21:08:18.427Z,7.07
2022-10-29T21:11:08.477Z,6.82
2022-10-29T21:13:54.171Z,7.63
2022-10-29T21:16:39.756Z,7.07
2022-10-29T21:19:25.912Z,6.93
2022-10-29T21:22:11.282Z,5.75
2022-10-29T21:24:56.749Z,6.07
2022-10-29T21:27:42.516Z,6.70
2022-10-29T21:30:27.863Z,6.55
2022-10-29T21:33:13.083Z,6.15
2022-10-29T21:35:59.180Z,6.38
2022-10-29T21:38:44.351Z,5.85
2022-10-29T21:41:29.800Z,6.00
2022-10-29T21:44:15.284Z,6.00
2022-10-29T21:47:00.720Z,6.40
2022-10-29T21:49:51.772Z,5.88
2022-10-29T21:52:37.919Z,5.88
2022-10-29T21:55:23.362Z,5.68
2022-10-29T21:58:09.046Z,5.82
2022-10-29T22:01:07.999Z,5.78
2022-10-29T22:03:53.569Z,6.22
2022-10-29T22:06:39.168Z,5.88
2022-10-29T22:09:24.775Z,5.78
2022-10-29T22:12:10.390Z,6.60
2022-10-29T22:14:56.078Z,5.72
2022-10-29T22:17:41.912Z,5.57
2022-10-29T22:20:27.319Z,6.13
2022-10-29T22:23:12.723Z,6.75
2022-10-29T22:25:58.107Z,6.63
2022-10-29T22:28:43.953Z,6.25
2022-10-29T22:31:29.904Z,6.85
2022-10-29T22:34:15.180Z,6.53
2022-10-29T22:37:00.751Z,6.85
2022-10-29T22:39:46.930Z,7.55
2022-10-29T22:42:32.516Z,7.10
2022-10-29T22:45:18.208Z,7.15
2022-10-29T22:48:03.728Z,7.88
2022-10-29T22:50:48.827Z,6.20
2022-10-29T22:53:34.808Z,7.03
2022-10-29T22:56:23.332Z,6.32
2022-10-29T22:59:09.187Z,6.55
2022-10-29T23:01:54.874Z,6.05
2022-10-29T23:04:40.206Z,5.80
2022-10-29T23:07:25.776Z,5.78
2022-10-29T23:10:11.320Z,6.03
2022-10-29T23:12:56.953Z,5.70
2022-10-29T23:15:51.940Z,5.95
2022-10-29T23:18:37.604Z,6.28
2022-10-29T23:21:24.014Z,6.30
2022-10-29T23:24:09.923Z,5.80
2022-10-29T23:26:55.614Z,5.85
2022-10-29T23:29:40.960Z,6.85
2022-10-29T23:32:26.377Z,6.30
2022-10-29T23:35:12.223Z,5.90
2022-10-29T23:37:57.663Z,5.40
2022-10-29T23:40:44.628Z,5.80
2022-10-29T23:43:30.530Z,5.30
2022-10-29T23:46:16.074Z,4.80
2022-10-29T23:49:01.646Z,5.93
2022-10-29T23:51:47.421Z,5.93
2022-10-29T23:54:32.945Z,6.25
2022-10-29T23:57:18.343Z,5.18
